Rock Glen, New York
Current Conditions -  °F | °C
As of 1:54 AM on Monday 24 Nov 2014 (Local Time) from KDSV Reporting Station
Light Rain Light Rain  
Wind Chill: 51°   Ceiling: 11000
Heat Index: 51°   Visibility: 10mi
Dew Point: 46°   Wind: 16mph
Humidity: 83%   Direction: 160°SSE
Pressure: 29.52"   Gusts: NA
Location:  42.674°N, 78.109°W
Report Text: KDSV 240654Z AUTO 16014KT 10SM -RA FEW090 OVC110 11/08 A2952 RMK AO2 PK WND 15026/0631 PRESFR SLP007 P0002 T01060078
Loading
Personal Weather Stations






























Interactive Weather Map New forecast layout! Learn more

10-Day Weather Forecast

Advertisements
Track Severe Weather on mobile